sensor_id;sensor_type;location;lat;lon;timestamp;temperature;humidity
18175;DHT22;9212;50.894;16.714;2023-06-22T19:30:19;24.90;99.90
18175;DHT22;9212;50.894;16.714;2023-06-22T19:32:46;24.80;99.90
18175;DHT22;9212;50.894;16.714;2023-06-22T19:35:14;24.90;99.90
18175;DHT22;9212;50.894;16.714;2023-06-22T19:37:45;25.10;99.90
18175;DHT22;9212;50.894;16.714;2023-06-22T19:40:16;24.60;99.90
18175;DHT22;9212;50.894;16.714;2023-06-22T19:42:44;24.30;99.90
18175;DHT22;9212;50.894;16.714;2023-06-22T19:45:17;24.50;99.90
18175;DHT22;9212;50.894;16.714;2023-06-22T19:50:15;24.80;99.90
18175;DHT22;9212;50.894;16.714;2023-06-22T19:52:45;25.00;99.90
18175;DHT22;9212;50.894;16.714;2023-06-22T19:55:12;25.20;99.90
18175;DHT22;9212;50.894;16.714;2023-06-22T19:57:41;25.20;99.90
18175;DHT22;9212;50.894;16.714;2023-06-22T20:00:13;25.40;99.90
18175;DHT22;9212;50.894;16.714;2023-06-22T20:02:43;25.10;99.90
18175;DHT22;9212;50.894;16.714;2023-06-22T20:05:11;25.50;99.90
18175;DHT22;9212;50.894;16.714;2023-06-22T20:07:40;25.30;99.90
18175;DHT22;9212;50.894;16.714;2023-06-22T20:10:13;24.40;99.90
18175;DHT22;9212;50.894;16.714;2023-06-22T20:12:41;25.00;99.90
18175;DHT22;9212;50.894;16.714;2023-06-22T20:15:27;25.00;99.90
18175;DHT22;9212;50.894;16.714;2023-06-22T20:17:59;24.90;99.90
18175;DHT22;9212;50.894;16.714;2023-06-22T20:20:29;24.40;99.90
18175;DHT22;9212;50.894;16.714;2023-06-22T20:22:59;24.80;99.90
18175;DHT22;9212;50.894;16.714;2023-06-22T20:25:30;24.80;99.90
18175;DHT22;9212;50.894;16.714;2023-06-22T20:28:07;24.70;99.90
18175;DHT22;9212;50.894;16.714;2023-06-22T20:30:35;24.60;99.90
18175;DHT22;9212;50.894;16.714;2023-06-22T20:33:13;24.50;99.90
18175;DHT22;9212;50.894;16.714;2023-06-22T20:35:46;24.40;99.90
18175;DHT22;9212;50.894;16.714;2023-06-22T20:40:42;24.00;99.90
18175;DHT22;9212;50.894;16.714;2023-06-22T20:45:39;24.10;99.90
18175;DHT22;9212;50.894;16.714;2023-06-22T20:50:35;23.40;99.90
18175;DHT22;9212;50.894;16.714;2023-06-22T20:53:04;23.70;99.90
18175;DHT22;9212;50.894;16.714;2023-06-22T20:55:34;23.80;99.90
18175;DHT22;9212;50.894;16.714;2023-06-22T20:58:03;23.70;99.90
18175;DHT22;9212;50.894;16.714;2023-06-22T21:00:31;23.40;99.90
18175;DHT22;9212;50.894;16.714;2023-06-22T21:03:02;24.00;99.90
18175;DHT22;9212;50.894;16.714;2023-06-22T21:05:31;23.80;99.90
18175;DHT22;9212;50.894;16.714;2023-06-22T21:07:58;24.00;99.90
18175;DHT22;9212;50.894;16.714;2023-06-22T21:10:28;23.70;99.90
18175;DHT22;9212;50.894;16.714;2023-06-22T21:12:55;23.80;99.90
18175;DHT22;9212;50.894;16.714;2023-06-22T21:15:22;23.50;99.90
18175;DHT22;9212;50.894;16.714;2023-06-22T21:17:51;23.60;99.90
18175;DHT22;9212;50.894;16.714;2023-06-22T21:20:18;23.70;99.90
18175;DHT22;9212;50.894;16.714;2023-06-22T21:22:47;23.50;99.90
18175;DHT22;9212;50.894;16.714;2023-06-22T21:25:14;23.40;99.90
18175;DHT22;9212;50.894;16.714;2023-06-22T21:27:42;23.10;99.90
18175;DHT22;9212;50.894;16.714;2023-06-22T21:30:11;23.50;99.90
18175;DHT22;9212;50.894;16.714;2023-06-22T21:32:39;23.60;99.90
18175;DHT22;9212;50.894;16.714;2023-06-22T21:35:07;24.00;99.90
18175;DHT22;9212;50.894;16.714;2023-06-22T21:37:35;24.40;99.90
18175;DHT22;9212;50.894;16.714;2023-06-22T21:40:04;24.10;99.90
18175;DHT22;9212;50.894;16.714;2023-06-22T21:42:31;23.60;99.90
18175;DHT22;9212;50.894;16.714;2023-06-22T21:44:58;24.10;99.90
18175;DHT22;9212;50.894;16.714;2023-06-22T21:47:25;23.50;99.90
18175;DHT22;9212;50.894;16.714;2023-06-22T21:52:19;23.70;99.90
18175;DHT22;9212;50.894;16.714;2023-06-22T21:54:46;23.40;99.90
18175;DHT22;9212;50.894;16.714;2023-06-22T21:57:14;24.10;99.90
18175;DHT22;9212;50.894;16.714;2023-06-22T21:59:41;24.10;99.90
18175;DHT22;9212;50.894;16.714;2023-06-22T22:02:08;23.40;99.90
18175;DHT22;9212;50.894;16.714;2023-06-22T22:04:35;23.30;99.90
18175;DHT22;9212;50.894;16.714;2023-06-22T22:07:03;23.40;99.90
18175;DHT22;9212;50.894;16.714;2023-06-22T22:14:26;23.40;99.90
18175;DHT22;9212;50.894;16.714;2023-06-22T22:16:53;22.80;99.90
18175;DHT22;9212;50.894;16.714;2023-06-22T22:19:20;22.90;99.90
18175;DHT22;9212;50.894;16.714;2023-06-22T22:24:14;22.90;99.90
18175;DHT22;9212;50.894;16.714;2023-06-22T22:26:41;23.00;99.90
18175;DHT22;9212;50.894;16.714;2023-06-22T22:29:08;22.60;99.90
18175;DHT22;9212;50.894;16.714;2023-06-22T22:31:36;22.80;99.90
18175;DHT22;9212;50.894;16.714;2023-06-22T22:34:04;22.90;99.90
18175;DHT22;9212;50.894;16.714;2023-06-22T22:36:32;22.90;99.90
18175;DHT22;9212;50.894;16.714;2023-06-22T22:38:59;23.00;99.90
18175;DHT22;9212;50.894;16.714;2023-06-22T22:46:21;22.90;99.90
18175;DHT22;9212;50.894;16.714;2023-06-22T22:51:17;22.70;99.90
18175;DHT22;9212;50.894;16.714;2023-06-22T22:53:44;22.60;99.90
18175;DHT22;9212;50.894;16.714;2023-06-22T22:56:12;24.10;99.90
18175;DHT22;9212;50.894;16.714;2023-06-22T22:58:39;22.90;99.90
18175;DHT22;9212;50.894;16.714;2023-06-22T23:01:06;22.80;99.90
18175;DHT22;9212;50.894;16.714;2023-06-22T23:03:33;22.70;99.90
18175;DHT22;9212;50.894;16.714;2023-06-22T23:06:01;22.80;99.90
18175;DHT22;9212;50.894;16.714;2023-06-22T23:08:29;22.80;99.90
18175;DHT22;9212;50.894;16.714;2023-06-22T23:10:56;22.50;99.90
18175;DHT22;9212;50.894;16.714;2023-06-22T23:13:23;23.00;99.90
18175;DHT22;9212;50.894;16.714;2023-06-22T23:18:17;23.00;99.90
18175;DHT22;9212;50.894;16.714;2023-06-22T23:20:44;22.30;99.90
18175;DHT22;9212;50.894;16.714;2023-06-22T23:23:13;23.10;99.90
18175;DHT22;9212;50.894;16.714;2023-06-22T23:25:40;23.10;99.90
18175;DHT22;9212;50.894;16.714;2023-06-22T23:33:02;23.00;99.90
18175;DHT22;9212;50.894;16.714;2023-06-22T23:35:29;22.80;99.90
18175;DHT22;9212;50.894;16.714;2023-06-22T23:45:20;22.70;99.90
18175;DHT22;9212;50.894;16.714;2023-06-22T23:50:16;22.70;99.90
18175;DHT22;9212;50.894;16.714;2023-06-22T23:52:44;22.70;99.90
18175;DHT22;9212;50.894;16.714;2023-06-22T23:55:14;22.60;99.90
18175;DHT22;9212;50.894;16.714;2023-06-22T23:57:43;22.50;99.90
